Escuelas de vuelo

Flying Academy USA

Flying Academy USA

Miami, Florida        Temp. actual 28 °C

Flying Academy Europe

Flying Academy Europa

Praga & Brno, Republica Checa        Temp. actual 23 °C

News

Time Building - $ 82 por hora de vuelo en Cessna 152

Time Building es una de las fuentes de experiencia sustanciales para cada piloto, especialmente los jóvenes profesionales que se están preparando para trabajar en las aerolíneas. La experiencia de vuelo avanzada puede ser una ventaja insuperable durante la entrevista.
Con el fin de apoyar a los pilotos sin mucha experiencia de vuelo en su camino hacia el asiento del capitán, Flying Academy lanza una oferta por Time Building en nuestra base de entrenamiento de Miami.
Al comprar el paquete >101 horas, están recibiendo no sólo las condiciones meteorológicas perfectas, sino tambien una fascinante experiencia de vuelo a un precio preferencial de $ 82 por hora de vuelo en Cessna 152, incluyendo el combustible y soporte de manipulación.
Por encima de eso, nuestros instructores estarán encantados de ayudarle a familiarizarse con las normas locales o generales de la industria aeroespacial, también ayudandole con toda la planificación necesaria para cada vuelo. Recibirán recomendaciones sobre bonitos lugares a sobrevolar, con el fin de hacer su tiempo en Miami verdaderamente inolvidable. 

continúa leyendo >>

Flying Academy anuncia un Concurso Global de Videos de Vuelo entre nuestros alumnos. El ganador obtendrá 1 000 euros!

Ya sabemos que nuestros estudiantes son entusiastas y creativos en cuanto a la aviación. Por lo cual ha llegado el moment para demostrarlo a todo el mundo. Haz un video de una manera libre y creativa, respondiendo a la eterna pregunta "¿Por qué quería ser piloto?" y gana 1000 euros.
Comparte tu experiencia de vuelo con otros en el canal YouTube de Flying Academy. Puede ser un gran metraje de tu vuelo reciente del Time Building o un video educativo para tus compañeros. Sólo tu inventividad debería limitar tu trabajo. También puedes participar en el concurso con más de 1 video.
El ganador será elegido el 30 de de noviembre de 2016, teniendo en cuenta la cantidad de Likes para cada video.
Condiciones para entrar en el concurso:
  • Estudiar o haber estudiado en Flying Academy.
  • Has filmado usando la flota y las instalaciones de Flying Academy.
  • La duración del vídeo es más de 1 minuto.
  • Número de vídeos por persona no está limitado.
Por favor, recuerde: la seguridad y el rendimiento profesional son en el primer plan! El vídeo será admitido en el concurso sólo en caso de que todas las normas de seguridad se siguieron al nivel requerido.

continúa leyendo >>

Celebre la temporada de fiestas con Flying Academy! Estamos ofreciendo una única oportunidad para todo el personal en tierra de aeropuerto de aerolíneas!

Este año, las festividades llegaron más temprano de lo esperado!
Flying Academy ha preparado una oferta especial para todo el personal de Aerolíneas. Para aquellas personas que quieren experimentar la aviación desde una perspectiva diferente y convertirse en portador de la ATPL, esta es la oportunidad perfecta!
Esta oportunidad está disponible únicamente para el personal en tierra de aerolíneas y por tiempo limitado!
Aplica desde el 9 de noviembre de 2015, hasta el 9 de abril de 2016. Recibe un precio especial para el entrenamiento de Cero (0) a Comercial con un horario flexible basado en sus turnos de trabajo.
Conviértase en Piloto Profesional de Aerolínea en uno de los Centros Internacionales de Entrenamiento de vuelo de mayor crecimiento en el mercado de Europa y los Estados Unidos.
Para mayor información contacte a nuestros Asesores de Entrenamiento de Vuelo al correo electrónico fly@FlyingAcademy.com ó llame al +34 911 87 76 27.

continúa leyendo >>

archive

Ùltimo post del blog

"El Time Building en Miami es una experiencia única en la vida. Recomiendo a todos los estudiantes que vayan allí ", dice Bekim, nuestro estudiante de Croacia

Bekim de Croacia, el estudiante de Flying Academy, hizo una parte de su Time Building de su programa 0-ATPL (A) a nuestra base en Miami.

Se refiere a este momento diciendo que es "una experiencia única en la vida". Bekim pasó más de un mes a la base de Miami y recomienda a todos los estudiantes a aprovechar de esta oportunidad.

Él dice: "Es realmente una experiencia enorme y es un gran entrenamiento antes de entrar en las líneas aéreas." Lee el artículo completo sobre el tiempo que pasó en formación en la base de Miami AQUI.

Para obtener más información sobre las opciones de formación en la base de Miami de Flying Academy, contacta nuestros consultores en formación de vuelo y te darán información detallada sobre el Time building, PPL(A) en USA o Europe, cursos 0-CPL y mucho más.

continúa leyendo >>

archive

Flying Academy s.r.o.
Beranových 130
Praga 9 - Letnany
199 00
República Checa

www.FlyingAcademy.com
fly@FlyingAcademy.com

Czech Republic +420 2 2888 2444        +44 1865 989098
+7 499 918 6176          +380 44 362 3373
+90 212 988 1259        +47 21 95 01 59
+46 8 124 102 52         +48 22 209 89 01
+1 321-214-0961          +4 0754 23 22 21
+34 911 87 76 27          +972 3-374-1266
+39 06 9480 4825         +86 10 8405 3451
+86 755 8624 3635       +49 800 723 6213

último reporte meteorológico>

LKTB

LKTB 301630Z 35008KT CAVOK 23/09 Q1023 NOSIG

LKPR

LKPR 301630Z 04007KT CAVOK 20/06 Q1025 NOSIG

LKKV

LKKV 301630Z 07006KT CAVOK 20/06 Q1025

KTMB

KTMB 301553Z 16011G17KT 10SM FEW029 SCT038 BKN060 29/24 A2994 RMK AO2 SLP137 T02940239



Herramientas para el briefing

METAR & TAF Europe

METAR & TAF CZ

Weather Radar CZ

AIP Czech Republic

Curso Integrado ATPL con 750 horas de formación teórica, MCC, JOC en B737NG o A320 FFS+ curso de preparación para la entrevista Regístrese ahora!